Time;durP1;ratioP1;P1;durP2;ratioP2;P2;SDS_P1;SDS_P2;PMS_P1;PMS_P2;Temp;Humidity;BMP_temperature;BMP_pressure;BME280_temperature;BME280_humidity;BME280_pressure;Samples;Min_cycle;Max_cycle;Signal;HPM_P1;HPM_P2
2022/08/05 00:01:49;;;;;;;1999.90;999.90;;;18.80;1.00;;;;;;5051734;28;20509;-83
2022/08/05 00:04:15;;;;;;;1999.90;999.90;;;18.80;1.00;;;;;;5057378;28;20044;-82
2022/08/05 00:06:41;;;;;;;1999.90;999.90;;;18.80;99.90;;;;;;5072380;28;20052;-83
2022/08/05 00:09:07;;;;;;;1999.90;999.90;;;18.80;99.90;;;;;;5071114;28;20801;-83
2022/08/05 00:11:32;;;;;;;1999.90;999.90;;;18.80;99.90;;;;;;5068863;28;20060;-83
2022/08/05 00:13:58;;;;;;;1999.90;999.90;;;18.80;1.00;;;;;;5051782;28;20183;-83
2022/08/05 00:16:24;;;;;;;1999.90;999.90;;;18.80;99.90;;;;;;5051083;28;20081;-83
2022/08/05 00:18:50;;;;;;;1999.90;999.90;;;18.80;99.90;;;;;;5050428;28;20072;-84
2022/08/05 00:21:17;;;;;;;1999.90;999.90;;;18.80;99.90;;;;;;5052465;28;20381;-83
2022/08/05 00:23:45;;;;;;;1999.90;999.90;;;18.80;99.90;;;;;;5053493;28;20490;-83
2022/08/05 00:26:12;;;;;;;1999.90;999.90;;;18.70;1.00;;;;;;5055916;28;20128;-83
2022/08/05 00:28:38;;;;;;;1999.90;999.90;;;18.70;99.90;;;;;;5055992;28;20041;-83
2022/08/05 00:31:04;;;;;;;1999.90;999.90;;;18.70;99.90;;;;;;5054790;28;20363;-83
2022/08/05 00:33:30;;;;;;;1999.90;999.90;;;18.60;1.00;;;;;;5054653;28;20053;-83
2022/08/05 00:35:56;;;;;;;1999.90;999.90;;;18.60;1.00;;;;;;5054489;28;20147;-83
2022/08/05 00:38:21;;;;;;;1999.90;999.90;;;18.60;1.00;;;;;;5055553;28;20107;-83
2022/08/05 00:40:50;;;;;;;1999.90;999.90;;;18.60;1.00;;;;;;5055485;28;20474;-83
2022/08/05 00:43:16;;;;;;;1999.90;999.90;;;18.70;1.00;;;;;;5054694;28;20053;-83
2022/08/05 00:45:42;;;;;;;1999.90;999.90;;;18.70;1.00;;;;;;5054604;28;20041;-83
2022/08/05 00:48:20;;;;;;;1999.90;999.90;;;18.70;1.00;;;;;;5055331;28;20049;-83
2022/08/05 00:50:49;;;;;;;1999.90;999.90;;;18.70;1.00;;;;;;5055859;28;20045;-83
2022/08/05 00:53:16;;;;;;;1999.90;999.90;;;18.70;1.00;;;;;;5053957;28;20111;-83
2022/08/05 00:55:43;;;;;;;1999.90;999.90;;;18.70;1.00;;;;;;5054307;28;20421;-83
2022/08/05 00:58:10;;;;;;;1999.90;999.90;;;18.70;1.00;;;;;;5055027;28;20037;-82
2022/08/05 01:00:36;;;;;;;1999.90;999.90;;;18.70;1.00;;;;;;5054121;28;20091;-83
2022/08/05 01:03:02;;;;;;;1999.90;999.90;;;18.70;1.00;;;;;;5055096;28;20088;-83
2022/08/05 01:05:27;;;;;;;1999.90;999.90;;;18.70;1.00;;;;;;5069517;28;20543;-83
2022/08/05 01:07:55;;;;;;;1999.90;999.90;;;18.70;1.00;;;;;;5074523;28;20396;-83
2022/08/05 01:10:26;;;;;;;1999.90;999.90;;;18.70;1.00;;;;;;5075026;28;20071;-83
2022/08/05 01:12:57;;;;;;;1999.90;999.90;;;18.70;1.00;;;;;;5075323;28;20066;-83
2022/08/05 01:15:32;;;;;;;1999.90;999.90;;;18.70;1.00;;;;;;5074026;28;20493;-83
2022/08/05 01:18:08;;;;;;;1999.90;999.90;;;18.70;1.00;;;;;;5074536;28;20564;-83
2022/08/05 01:20:49;;;;;;;1999.90;999.90;;;18.70;1.00;;;;;;5073996;28;20481;-83
2022/08/05 01:23:28;;;;;;;1999.90;999.90;;;18.70;1.00;;;;;;5062397;28;20389;-83
2022/08/05 01:26:36;;;;;;;1999.90;999.90;;;18.70;1.00;;;;;;5053673;28;20048;-85
2022/08/05 01:29:28;;;;;;;1999.90;999.90;;;18.70;1.00;;;;;;5053585;28;20045;-83
2022/08/05 01:31:59;;;;;;;1999.90;999.90;;;18.70;1.00;;;;;;5053852;28;20469;-83
2022/08/05 01:34:30;;;;;;;1999.90;999.90;;;18.60;1.00;;;;;;5054498;28;20440;-83
2022/08/05 01:37:18;;;;;;;1999.90;999.90;;;18.60;1.00;;;;;;5052822;28;20103;-84
2022/08/05 01:39:47;;;;;;;1999.90;999.90;;;18.60;1.00;;;;;;5054344;28;20051;-83
2022/08/05 01:42:18;;;;;;;1999.90;999.90;;;18.50;1.00;;;;;;5054264;28;20075;-83
2022/08/05 01:44:46;;;;;;;1999.90;999.90;;;18.50;1.00;;;;;;5036632;28;20052;-83
2022/08/05 01:47:16;;;;;;;1999.90;999.90;;;18.50;1.00;;;;;;5053898;28;20476;-82
2022/08/05 01:49:42;;;;;;;1999.90;999.90;;;18.40;1.00;;;;;;5054537;28;20052;-83
2022/08/05 01:52:10;;;;;;;1999.90;999.90;;;18.40;1.00;;;;;;5052590;28;20049;-83
2022/08/05 01:54:51;;;;;;;1949.72;999.90;;;18.40;1.00;;;;;;5053227;28;20041;-83
2022/08/05 01:57:26;;;;;;;1999.90;999.90;;;18.40;1.00;;;;;;5052938;28;20549;-83
2022/08/05 01:59:57;;;;;;;1999.90;999.90;;;18.30;1.00;;;;;;5054448;28;20059;-83
2022/08/05 02:02:24;;;;;;;1999.90;999.90;;;18.30;1.00;;;;;;5054262;28;20371;-83
2022/08/05 02:04:51;;;;;;;1999.90;999.90;;;18.20;1.00;;;;;;5064280;28;20068;-83
2022/08/05 02:07:17;;;;;;;;;;;18.20;1.00;;;;;;5073698;28;20053;-83
2022/08/05 02:09:44;;;;;;;1999.90;999.90;;;18.20;1.00;;;;;;5072631;28;19926;-83
2022/08/05 02:12:26;;;;;;;1999.90;999.90;;;18.10;1.00;;;;;;5067268;28;20056;-83
2022/08/05 02:15:01;;;;;;;1999.90;999.90;;;18.10;1.00;;;;;;5053068;28;20056;-83
2022/08/05 02:17:35;;;;;;;1999.90;999.90;;;18.10;1.00;;;;;;5054021;28;20052;-83
2022/08/05 02:20:06;;;;;;;1999.90;999.90;;;18.00;1.00;;;;;;5053731;28;20542;-84
2022/08/05 02:22:59;;;;;;;1999.90;999.90;;;18.10;1.00;;;;;;5052943;28;20045;-83
2022/08/05 02:25:31;;;;;;;1999.90;999.90;;;18.10;1.00;;;;;;5050756;28;20067;-83
2022/08/05 02:27:58;;;;;;;1999.90;999.90;;;18.10;1.00;;;;;;5053564;28;20045;-83
2022/08/05 02:30:26;;;;;;;1999.90;999.90;;;18.10;1.00;;;;;;5052477;28;20402;-83
2022/08/05 02:32:56;;;;;;;1981.30;999.90;;;18.10;1.00;;;;;;5052692;28;20117;-84
2022/08/05 02:35:24;;;;;;;1999.90;999.90;;;18.00;1.00;;;;;;5053384;28;20049;-84
2022/08/05 02:37:52;;;;;;;1999.90;999.90;;;18.10;1.00;;;;;;5052633;28;20060;-84
2022/08/05 02:40:20;;;;;;;1999.90;999.90;;;18.10;1.00;;;;;;5035586;28;20052;-84
2022/08/05 02:42:47;;;;;;;1999.90;999.90;;;18.00;1.00;;;;;;5053184;28;20049;-83
2022/08/05 02:45:14;;;;;;;1999.90;999.90;;;18.00;1.00;;;;;;5035106;28;20060;-84
2022/08/05 02:47:41;;;;;;;1999.90;999.90;;;18.00;1.00;;;;;;5053217;28;20045;-84
2022/08/05 02:50:08;;;;;;;1999.90;999.90;;;18.00;7.00;;;;;;5053129;28;20087;-84
2022/08/05 02:52:35;;;;;;;1999.90;999.90;;;17.90;10.50;;;;;;5053048;28;20413;-83
2022/08/05 02:55:01;;;;;;;1999.90;999.90;;;18.00;18.80;;;;;;5052945;28;20041;-84
2022/08/05 02:57:29;;;;;;;1999.90;999.90;;;17.90;19.80;;;;;;5051585;28;20391;-84
2022/08/05 02:59:55;;;;;;;1999.90;999.90;;;18.00;22.20;;;;;;5052305;28;20053;-84
2022/08/05 03:02:27;;;;;;;1999.90;999.90;;;17.90;22.30;;;;;;5034583;28;20064;-84
2022/08/05 03:04:56;;;;;;;1999.90;999.90;;;17.90;33.00;;;;;;5062279;28;20056;-84
2022/08/05 03:07:23;;;;;;;1999.90;999.90;;;18.00;25.30;;;;;;5054518;28;20053;-84
2022/08/05 03:09:49;;;;;;;1999.90;999.90;;;18.00;26.50;;;;;;5072660;28;20041;-84
2022/08/05 03:12:48;;;;;;;1999.90;999.90;;;18.00;28.50;;;;;;5072223;28;20389;-84
2022/08/05 03:15:14;;;;;;;1999.90;999.90;;;18.00;28.20;;;;;;5049659;28;20144;-84
2022/08/05 03:17:39;;;;;;;1999.90;999.90;;;18.00;27.10;;;;;;5055119;28;20532;-83
2022/08/05 03:20:06;;;;;;;1999.90;999.90;;;18.00;42.90;;;;;;5071675;28;20136;-84
2022/08/05 03:22:32;;;;;;;1999.90;999.90;;;17.50;31.60;;;;;;5067358;28;20080;-84
2022/08/05 03:24:58;;;;;;;1999.90;999.90;;;18.00;29.90;;;;;;5052416;28;20118;-84
2022/08/05 03:27:24;;;;;;;1999.90;999.90;;;18.00;36.80;;;;;;5052334;28;20076;-84
2022/08/05 03:29:50;;;;;;;1999.90;999.90;;;18.00;45.40;;;;;;5035104;28;20057;-84
2022/08/05 03:32:18;;;;;;;1999.90;999.90;;;18.00;38.40;;;;;;5052263;28;20504;-84
2022/08/05 03:34:45;;;;;;;1999.90;999.90;;;18.00;37.00;;;;;;5052781;28;20127;-84
2022/08/05 03:37:11;;;;;;;1999.90;999.90;;;17.90;40.90;;;;;;5034152;28;20072;-84
2022/08/05 03:39:37;;;;;;;1999.90;999.90;;;17.90;52.30;;;;;;5051827;28;20580;-84
2022/08/05 03:42:03;;;;;;;1999.90;999.90;;;17.90;44.10;;;;;;5052389;28;20124;-84
2022/08/05 03:44:29;;;;;;;1999.90;999.90;;;17.90;40.30;;;;;;5067577;28;20044;-84
2022/08/05 03:46:55;;;;;;;1999.90;999.90;;;17.90;43.70;;;;;;5051156;28;20442;-84
2022/08/05 03:49:20;;;;;;;1999.90;999.90;;;17.80;46.70;;;;;;5051062;28;20045;-84
2022/08/05 03:51:59;;;;;;;1999.90;999.90;;;17.90;45.60;;;;;;5052295;28;20131;-85
2022/08/05 03:54:47;;;;;;;1999.90;999.90;;;17.90;49.00;;;;;;5051715;28;20064;-85
2022/08/05 03:57:15;;;;;;;1999.90;999.90;;;17.80;56.40;;;;;;5034188;28;20048;-85
2022/08/05 03:59:48;;;;;;;1999.90;999.90;;;17.80;59.80;;;;;;5051257;28;20124;-84
2022/08/05 04:02:15;;;;;;;1999.90;999.90;;;17.80;54.10;;;;;;5051679;28;20127;-85
2022/08/05 04:04:42;;;;;;;1999.90;999.90;;;17.70;49.30;;;;;;5059848;28;20075;-84
2022/08/05 04:07:09;;;;;;;1999.90;999.90;;;17.70;53.40;;;;;;5070653;28;20048;-84
2022/08/05 04:09:36;;;;;;;1999.90;999.90;;;17.70;55.50;;;;;;5071485;28;20073;-84
2022/08/05 04:12:02;;;;;;;1999.90;999.90;;;17.70;57.30;;;;;;5066658;28;20045;-84
2022/08/05 04:14:28;;;;;;;1999.90;999.90;;;17.70;66.50;;;;;;5051873;28;20052;-84
2022/08/05 04:16:53;;;;;;;1999.90;999.90;;;17.70;62.70;;;;;;5051019;28;20036;-84
2022/08/05 04:19:19;;;;;;;1999.90;999.90;;;17.70;62.70;;;;;;5051811;28;20183;-84
2022/08/05 04:21:45;;;;;;;1999.90;999.90;;;17.70;69.20;;;;;;5051998;28;20132;-85
2022/08/05 04:24:11;;;;;;;1999.90;999.90;;;17.70;62.40;;;;;;5050491;28;20191;-84
2022/08/05 04:26:37;;;;;;;1999.90;999.90;;;17.70;61.20;;;;;;5050666;28;20049;-84
2022/08/05 04:29:03;;;;;;;1999.90;999.90;;;17.70;60.30;;;;;;5050750;28;20083;-85
2022/08/05 04:31:28;;;;;;;1999.90;999.90;;;17.80;64.30;;;;;;5050826;28;20071;-85
2022/08/05 04:33:54;;;;;;;1999.90;999.90;;;17.80;71.80;;;;;;5051936;28;20078;-85
2022/08/05 04:36:20;;;;;;;1999.90;999.90;;;17.80;76.90;;;;;;5050537;28;20053;-84
2022/08/05 04:38:45;;;;;;;1999.90;999.90;;;17.80;79.60;;;;;;5051054;28;20456;-85
2022/08/05 04:41:11;;;;;;;1999.90;999.90;;;17.90;83.00;;;;;;5034439;28;20053;-84
2022/08/05 04:43:38;;;;;;;1999.90;999.90;;;17.80;79.10;;;;;;5050164;28;20041;-84
2022/08/05 04:46:07;;;;;;;1999.90;999.90;;;17.80;81.50;;;;;;5034138;28;20052;-84
2022/08/05 04:48:33;;;;;;;1999.90;999.90;;;16.70;85.40;;;;;;5066992;28;20393;-85
2022/08/05 04:50:59;;;;;;;1999.90;999.90;;;17.80;79.20;;;;;;5050858;28;20044;-84
2022/08/05 04:53:26;;;;;;;1999.90;999.90;;;17.70;89.80;;;;;;5049905;28;20053;-85
2022/08/05 04:55:52;;;;;;;1999.90;999.90;;;17.70;95.70;;;;;;5050732;28;20056;-84
2022/08/05 04:58:18;;;;;;;1999.90;999.90;;;17.70;96.90;;;;;;5050208;28;20133;-85
2022/08/05 05:00:44;;;;;;;1999.90;999.90;;;17.80;91.40;;;;;;5051790;28;20140;-84
2022/08/05 05:03:10;;;;;;;1999.90;999.90;;;17.80;93.20;;;;;;5049568;28;20596;-84
2022/08/05 05:05:36;;;;;;;1999.90;999.90;;;17.80;89.40;;;;;;5066396;28;20393;-84
2022/08/05 05:08:04;;;;;;;1999.90;999.90;;;17.80;80.80;;;;;;5071372;28;20048;-84
2022/08/05 05:10:30;;;;;;;;;;;17.90;83.30;;;;;;5074558;28;20413;-85
2022/08/05 05:12:56;;;;;;;1999.90;999.90;;;17.90;91.70;;;;;;5075243;28;19989;-85
2022/08/05 05:15:22;;;;;;;1999.90;999.90;;;17.90;77.90;;;;;;5057271;28;20045;-85
2022/08/05 05:17:48;;;;;;;1999.90;999.90;;;18.00;70.50;;;;;;5075152;28;20040;-85
2022/08/05 05:20:14;;;;;;;1999.90;999.90;;;18.00;67.70;;;;;;5057409;28;20044;-85
2022/08/05 05:22:40;;;;;;;1999.90;999.90;;;18.00;62.60;;;;;;5073093;28;20422;-85
2022/08/05 05:25:07;;;;;;;1999.90;999.90;;;18.00;55.00;;;;;;5074675;28;20051;-85
2022/08/05 05:27:34;;;;;;;1999.90;999.90;;;17.90;57.00;;;;;;5073424;28;20405;-85
2022/08/05 05:30:01;;;;;;;1999.90;999.90;;;17.90;51.00;;;;;;5075106;28;20048;-85
2022/08/05 05:32:26;;;;;;;1999.90;999.90;;;17.90;45.00;;;;;;5081332;28;20099;-85
2022/08/05 05:34:52;;;;;;;1999.90;999.90;;;17.90;42.00;;;;;;5070389;28;20045;-85
2022/08/05 05:37:18;;;;;;;1999.90;999.90;;;17.90;45.60;;;;;;5054534;28;20055;-85
2022/08/05 05:39:44;;;;;;;1999.90;999.90;;;17.90;42.00;;;;;;5054078;28;20049;-84
2022/08/05 05:42:09;;;;;;;1999.90;999.90;;;17.90;43.20;;;;;;5053684;28;20048;-85
2022/08/05 05:44:35;;;;;;;1999.90;999.90;;;17.90;46.80;;;;;;5053518;28;20048;-85
2022/08/05 05:47:01;;;;;;;1999.90;999.90;;;;;;;;;;5054715;28;20535;-85
2022/08/05 05:49:27;;;;;;;1999.90;999.90;;;17.80;41.50;;;;;;5052886;28;20080;-85
2022/08/05 05:51:53;;;;;;;1999.90;999.90;;;17.20;48.70;;;;;;5054090;28;20077;-86
2022/08/05 05:54:19;;;;;;;1999.90;999.90;;;17.80;55.10;;;;;;5054118;28;20120;-85
2022/08/05 05:56:46;;;;;;;1999.90;999.90;;;17.60;52.50;;;;;;5054157;28;20133;-86
2022/08/05 05:59:11;;;;;;;1999.90;999.90;;;17.60;63.80;;;;;;5054336;28;20123;-85
2022/08/05 06:01:40;;;;;;;1999.90;999.90;;;17.60;73.00;;;;;;5052572;28;20139;-85
2022/08/05 06:04:07;;;;;;;1999.90;999.90;;;17.60;62.40;;;;;;5058160;28;20071;-86
2022/08/05 06:06:33;;;;;;;1999.90;999.90;;;17.50;78.20;;;;;;5073700;28;20048;-85
2022/08/05 06:08:59;;;;;;;1999.90;999.90;;;17.50;81.70;;;;;;5072184;28;20045;-86
2022/08/05 06:11:25;;;;;;;1999.90;999.90;;;17.50;85.80;;;;;;5072499;28;20093;-86
2022/08/05 06:13:50;;;;;;;1999.90;999.90;;;17.70;94.90;;;;;;5054033;28;20496;-86
2022/08/05 06:16:16;;;;;;;1999.90;999.90;;;17.80;99.20;;;;;;5054126;28;20517;-86
2022/08/05 06:18:42;;;;;;;1999.90;999.90;;;17.90;91.70;;;;;;5053534;28;20071;-86
2022/08/05 06:21:07;;;;;;;1999.90;999.90;;;18.00;79.90;;;;;;5036418;28;20501;-86
2022/08/05 06:23:33;;;;;;;1999.90;999.90;;;18.20;57.70;;;;;;5035084;28;20071;-86
2022/08/05 06:25:59;;;;;;;1999.90;999.90;;;18.20;46.10;;;;;;5054063;28;20041;-86
2022/08/05 06:28:25;;;;;;;1999.90;999.90;;;18.20;26.20;;;;;;5053686;28;20047;-86
2022/08/05 06:30:50;;;;;;;1999.90;999.90;;;18.20;29.80;;;;;;5052429;28;20080;-86
2022/08/05 06:33:16;;;;;;;1999.90;999.90;;;18.40;17.20;;;;;;5053708;28;20072;-87
2022/08/05 06:35:42;;;;;;;1999.90;999.90;;;18.50;14.00;;;;;;5053366;28;20053;-86
2022/08/05 06:38:07;;;;;;;1999.90;999.90;;;18.70;6.80;;;;;;5053243;28;20047;-87
2022/08/05 06:40:33;;;;;;;1999.90;999.90;;;18.80;1.00;;;;;;5034972;28;20047;-86
2022/08/05 06:42:59;;;;;;;1999.90;999.90;;;18.90;1.00;;;;;;5053599;28;20037;-86
2022/08/05 06:45:24;;;;;;;1999.90;999.90;;;18.90;1.00;;;;;;5052465;28;20136;-87
2022/08/05 06:47:50;;;;;;;1999.90;999.90;;;19.10;1.00;;;;;;5053150;28;20552;-86
2022/08/05 06:50:16;;;;;;;1999.90;999.90;;;19.30;1.00;;;;;;5053554;28;20053;-86
2022/08/05 06:52:42;;;;;;;1999.90;999.90;;;19.50;1.00;;;;;;5051334;28;20401;-86
2022/08/05 06:55:08;;;;;;;1999.90;999.90;;;19.80;1.00;;;;;;5035357;28;20504;-87
2022/08/05 06:57:33;;;;;;;1999.90;999.90;;;20.00;1.00;;;;;;5052891;28;20052;-87
2022/08/05 06:59:59;;;;;;;1999.90;999.90;;;20.00;1.00;;;;;;5035867;28;20059;-87
2022/08/05 07:02:25;;;;;;;1999.90;999.90;;;20.10;1.00;;;;;;5052548;28;20064;-87
2022/08/05 07:04:50;;;;;;;1446.90;999.90;;;20.00;99.90;;;;;;5062864;28;20405;-87
2022/08/05 07:07:17;;;;;;;1999.90;999.90;;;20.00;1.00;;;;;;5072365;28;20045;-87
2022/08/05 07:09:43;;;;;;;1940.70;999.90;;;20.00;99.90;;;;;;5071248;28;20053;-87
2022/08/05 07:16:47;;;;;;;1289.60;999.90;;;21.60;99.90;;;;;;5071989;28;20090;-87
2022/08/05 07:17:38;;;;;;;1296.50;999.90;;;24.20;99.90;;;;;;5072227;28;20409;-88
2022/08/05 07:20:04;;;;;;;1114.90;995.35;;;25.10;99.90;;;;;;5055026;28;20040;-88
2022/08/05 07:22:30;;;;;;;1276.80;999.90;;;24.80;99.90;;;;;;5037482;28;20085;-87
2022/08/05 07:25:00;;;;;;;1068.85;971.40;;;24.60;99.90;;;;;;5072521;28;20439;-89
2022/08/05 07:27:25;;;;;;;1322.15;999.90;;;24.50;99.90;;;;;;5071797;28;20082;-89
2022/08/05 07:29:51;;;;;;;1133.68;999.90;;;24.70;99.90;;;;;;5071377;28;20044;-89
2022/08/05 07:32:17;;;;;;;1145.50;832.33;;;24.80;99.90;;;;;;5064569;28;20045;-90
2022/08/05 07:34:43;;;;;;;796.90;546.88;;;24.80;99.90;;;;;;5052210;28;20561;-89
2022/08/05 07:37:08;;;;;;;1189.55;981.25;;;24.60;99.90;;;;;;5051006;28;20619;-90
2022/08/05 07:39:34;;;;;;;1706.32;891.58;;;24.40;99.90;;;;;;5051882;28;20040;-90
2022/08/05 07:42:00;;;;;;;1279.30;999.90;;;24.50;99.90;;;;;;5052400;28;20486;-90
2022/08/05 07:44:25;;;;;;;1146.93;874.17;;;24.40;99.90;;;;;;5051549;28;20045;-90
2022/08/05 07:46:51;;;;;;;1999.90;999.90;;;24.30;99.90;;;;;;5034010;28;20052;-90
2022/08/05 07:49:18;;;;;;;1999.90;999.90;;;24.40;99.90;;;;;;5051318;28;20134;-91
2022/08/05 07:51:44;;;;;;;1037.03;534.70;;;24.60;99.90;;;;;;5051188;28;20373;-90
2022/08/05 07:54:10;;;;;;;1999.90;999.90;;;25.10;99.90;;;;;;5051630;28;20283;-90
2022/08/05 07:56:37;;;;;;;1999.90;999.90;;;25.80;98.70;;;;;;5051980;28;20497;-91
2022/08/05 07:59:02;;;;;;;1999.90;999.90;;;26.20;89.50;;;;;;5051395;28;20041;-92
2022/08/05 08:01:28;;;;;;;1999.90;999.90;;;26.30;86.50;;;;;;5052480;28;20053;-91
2022/08/05 08:03:54;;;;;;;1999.90;999.90;;;26.00;79.90;;;;;;5054334;28;20398;-92
2022/08/05 08:06:19;;;;;;;1999.90;999.90;;;25.70;65.30;;;;;;5072920;28;20048;-92
2022/08/05 08:08:45;;;;;;;1999.90;999.90;;;26.00;64.20;;;;;;5053949;28;20064;-92
2022/08/05 08:11:11;;;;;;;1999.90;999.90;;;26.60;48.40;;;;;;5073737;28;20104;-91
2022/08/05 08:13:36;;;;;;;1161.68;999.90;;;26.60;18.50;;;;;;5053546;28;20132;-93
2022/08/05 08:16:02;;;;;;;1022.80;928.83;;;27.50;11.90;;;;;;5036247;28;20504;-93
2022/08/05 08:18:28;;;;;;;1000.67;913.72;;;27.60;1.00;;;;;;5037767;28;20088;-92
2022/08/05 08:20:54;;;;;;;1038.68;939.70;;;28.00;1.00;;;;;;5054983;28;20485;-93
2022/08/05 08:23:19;;;;;;;1113.70;995.97;;;27.70;1.00;;;;;;5054662;28;20049;-93
2022/08/05 08:25:45;;;;;;;1020.15;928.30;;;27.10;1.00;;;;;;5055248;28;20056;-93
2022/08/05 08:28:11;;;;;;;1095.43;983.35;;;26.40;1.00;;;;;;5041463;28;20331;-94
2022/08/05 08:30:37;;;;;;;955.47;865.60;;;28.20;1.00;;;;;;5063689;28;20135;-92
2022/08/05 08:33:07;;;;;;;710.38;654.58;;;29.20;1.00;;;;;;5063070;28;20076;-92
2022/08/05 08:35:34;;;;;;;840.60;763.63;;;30.50;1.00;;;;;;5077147;28;20049;-94
2022/08/05 08:38:00;;;;;;;1268.38;728.42;;;31.80;1.00;;;;;;5053572;28;20135;-92
2022/08/05 08:40:26;;;;;;;1999.90;999.90;;;32.30;1.00;;;;;;5062533;28;20079;-93
2022/08/05 08:42:53;;;;;;;712.92;647.33;;;31.80;1.00;;;;;;5061221;28;20052;-93
2022/08/05 08:45:22;;;;;;;1999.90;999.90;;;33.30;1.00;;;;;;5060196;28;20051;-92
2022/08/05 08:47:51;;;;;;;1999.90;999.90;;;33.80;1.00;;;;;;5056598;28;20092;-92
2022/08/05 08:50:18;;;;;;;1999.90;999.90;;;32.80;1.00;;;;;;5056124;28;20127;-93
2022/08/05 08:52:58;;;;;;;1999.90;999.90;;;31.30;1.00;;;;;;5071045;28;20045;-92
2022/08/05 08:55:24;;;;;;;800.95;734.33;;;30.00;1.00;;;;;;5055248;28;20440;-93
2022/08/05 08:57:50;;;;;;;769.88;709.97;;;29.00;1.00;;;;;;5055206;28;20102;-91
2022/08/05 09:00:15;;;;;;;807.50;730.75;;;28.30;1.00;;;;;;5055264;28;20045;-91
2022/08/05 09:02:43;;;;;;;782.03;722.15;;;27.60;1.00;;;;;;5055431;28;20111;-92
2022/08/05 09:05:10;;;;;;;;;;;26.80;1.00;;;;;;5069377;28;20040;-93
2022/08/05 09:07:36;;;;;;;987.97;889.20;;;26.00;1.00;;;;;;5074625;28;20273;-90
2022/08/05 09:10:03;;;;;;;1037.63;930.47;;;25.50;1.00;;;;;;5074641;28;20044;-93
2022/08/05 09:12:29;;;;;;;;;;;25.30;1.00;;;;;;5074919;28;20052;-92
2022/08/05 09:14:55;;;;;;;953.97;858.92;;;25.70;1.00;;;;;;5075530;28;19973;-92
2022/08/05 09:17:20;;;;;;;915.97;825.67;;;26.40;1.00;;;;;;5075322;28;20098;-92
2022/08/05 09:19:46;;;;;;;1287.63;742.25;;;27.50;1.00;;;;;;5074246;28;20070;-92
2022/08/05 09:22:12;;;;;;;1999.90;999.90;;;29.00;1.00;;;;;;5057026;28;20082;-90
2022/08/05 09:24:38;;;;;;;1999.90;999.90;;;30.20;1.00;;;;;;5057359;28;20370;-91
2022/08/05 09:27:07;;;;;;;1999.90;999.90;;;30.40;1.00;;;;;;5074729;28;20053;-91
2022/08/05 09:29:46;;;;;;;1999.90;999.90;;;30.10;1.00;;;;;;5075400;28;20084;-90
2022/08/05 09:32:12;;;;;;;1999.90;999.90;;;29.20;1.00;;;;;;5068157;28;20192;-90
2022/08/05 09:34:55;;;;;;;1999.90;999.90;;;29.30;1.00;;;;;;5054167;28;20132;-90
2022/08/05 09:37:23;;;;;;;318.63;267.48;;;30.00;1.00;;;;;;5054957;28;20099;-91
2022/08/05 09:39:49;;;;;;;1999.90;999.90;;;30.60;1.00;;;;;;5052937;28;20127;-90
2022/08/05 09:42:21;;;;;;;1999.90;999.90;;;31.10;1.00;;;;;;5053673;28;20076;-90
2022/08/05 09:44:52;;;;;;;1999.90;999.90;;;31.90;1.00;;;;;;5054796;28;20418;-91
2022/08/05 09:47:24;;;;;;;1999.90;999.90;;;33.10;1.00;;;;;;5054583;28;20056;-89
2022/08/05 09:49:55;;;;;;;1999.90;999.90;;;33.90;1.00;;;;;;5054361;28;20051;-88
2022/08/05 09:52:32;;;;;;;1999.90;999.90;;;33.70;1.00;;;;;;5054405;28;20469;-88
2022/08/05 09:54:59;;;;;;;1999.90;999.90;;;33.80;1.00;;;;;;5069002;28;20041;-89
2022/08/05 09:57:29;;;;;;;1999.90;999.90;;;34.10;1.00;;;;;;5054487;28;20052;-88
2022/08/05 10:00:00;;;;;;;1999.90;999.90;;;34.40;1.00;;;;;;5052884;28;20047;-88
2022/08/05 10:02:41;;;;;;;1999.90;999.90;;;34.00;1.00;;;;;;5054238;28;20053;-90
2022/08/05 10:05:10;;;;;;;1999.90;999.90;;;34.00;1.00;;;;;;5064907;28;20464;-91
2022/08/05 10:07:43;;;;;;;1999.90;999.90;;;34.40;1.00;;;;;;5073965;28;20131;-88
2022/08/05 10:10:09;;;;;;;1999.90;999.90;;;34.70;1.00;;;;;;5072291;28;20041;-87
2022/08/05 10:12:53;;;;;;;1999.90;999.90;;;34.90;1.00;;;;;;5074113;28;20108;-89
2022/08/05 10:15:30;;;;;;;1999.90;999.90;;;35.20;1.00;;;;;;5073019;28;20052;-90
2022/08/05 10:18:21;;;;;;;1999.90;999.90;;;35.50;1.00;;;;;;5073814;28;20048;-89
2022/08/05 10:20:53;;;;;;;1999.90;999.90;;;36.00;99.90;;;;;;5073110;28;20049;-91
2022/08/05 10:23:24;;;;;;;1999.90;999.90;;;36.10;1.00;;;;;;5055660;28;20045;-89
2022/08/05 10:25:50;;;;;;;1999.90;999.90;;;36.10;99.90;;;;;;5052515;28;20049;-89
2022/08/05 10:28:17;;;;;;;1999.90;999.90;;;36.00;99.90;;;;;;5054006;28;20375;-88
2022/08/05 10:30:43;;;;;;;1999.90;999.90;;;36.40;99.90;;;;;;5036443;28;20147;-89
2022/08/05 10:33:09;;;;;;;1999.90;999.90;;;36.60;99.90;;;;;;5052395;28;20069;-90
2022/08/05 10:35:35;;;;;;;1999.90;999.90;;;37.00;99.90;;;;;;5054029;28;20421;-88
2022/08/05 10:38:02;;;;;;;1999.90;999.90;;;37.00;99.90;;;;;;5053175;28;20056;-88
2022/08/05 10:40:36;;;;;;;640.63;597.75;;;36.50;99.90;;;;;;5035445;28;20098;-87
2022/08/05 10:43:12;;;;;;;1253.43;736.53;;;36.00;99.90;;;;;;5053320;28;20045;-88
2022/08/05 10:45:38;;;;;;;526.78;492.27;;;36.00;99.90;;;;;;5052653;28;20075;-90
2022/08/05 10:48:30;;;;;;;557.30;521.08;;;35.70;99.90;;;;;;5051995;28;20041;-89
2022/08/05 10:50:58;;;;;;;1999.90;999.90;;;35.80;99.90;;;;;;5050223;28;20510;-89
2022/08/05 10:53:40;;;;;;;455.85;426.88;;;35.20;99.90;;;;;;5053116;28;20106;-89
2022/08/05 10:56:26;;;;;;;724.47;676.00;;;35.80;99.90;;;;;;5053252;28;20057;-89
2022/08/05 10:58:52;;;;;;;614.63;572.40;;;35.90;99.90;;;;;;5051856;28;20041;-89
2022/08/05 11:01:40;;;;;;;753.17;701.67;;;36.20;99.90;;;;;;5052102;28;20086;-88
2022/08/05 11:04:19;;;;;;;718.63;669.80;;;36.00;99.90;;;;;;5056302;28;20125;-91
2022/08/05 11:06:59;;;;;;;682.17;636.33;;;35.90;99.90;;;;;;5072294;28;20362;-88
2022/08/05 11:09:27;;;;;;;619.47;577.97;;;36.10;99.90;;;;;;5072990;28;20103;-88
2022/08/05 11:11:54;;;;;;;686.33;640.35;;;36.00;99.90;;;;;;5072973;28;20098;-91
2022/08/05 11:14:30;;;;;;;;;;;35.90;99.90;;;;;;5073683;28;20040;-88
2022/08/05 11:17:27;;;;;;;286.42;269.13;;;35.60;99.90;;;;;;5072788;28;19946;-89
2022/08/05 11:19:54;;;;;;;214.82;201.93;;;36.20;99.90;;;;;;5072676;28;20117;-90
2022/08/05 11:22:47;;;;;;;618.25;575.13;;;36.20;99.90;;;;;;5072323;28;20422;-87
2022/08/05 11:25:33;;;;;;;365.55;342.10;;;35.60;99.90;;;;;;5071278;28;20049;-88
2022/08/05 11:28:11;;;;;;;215.32;202.15;;;35.10;99.90;;;;;;5072759;28;20205;-88
2022/08/05 11:30:55;;;;;;;219.38;206.60;;;35.30;99.90;;;;;;5088895;28;20059;-88
2022/08/05 11:33:35;;;;;;;325.60;305.23;;;34.90;99.90;;;;;;5056394;28;20569;-89
2022/08/05 11:36:09;;;;;;;245.68;231.32;;;33.90;99.90;;;;;;5051568;28;20053;-88
2022/08/05 11:38:37;;;;;;;246.27;231.75;;;33.00;99.90;;;;;;5051886;28;20095;-85
2022/08/05 11:41:07;;;;;;;178.80;168.57;;;33.00;99.90;;;;;;5051661;28;20048;-86
2022/08/05 11:43:33;;;;;;;205.35;192.73;;;33.40;99.90;;;;;;5052382;28;20056;-87
2022/08/05 11:46:00;;;;;;;228.87;215.00;;;34.00;99.90;;;;;;5018261;28;20106;-86
2022/08/05 11:48:27;;;;;;;;;;;33.80;99.90;;;;;;5052830;28;20037;-88
2022/08/05 11:50:53;;;;;;;343.38;322.05;;;32.70;99.90;;;;;;5051352;28;19920;-87
2022/08/05 11:53:19;;;;;;;183.73;172.63;;;32.10;99.90;;;;;;5052086;28;20045;-87
2022/08/05 11:55:57;;;;;;;160.75;151.05;;;31.40;99.90;;;;;;5067786;28;20492;-86
2022/08/05 11:58:40;;;;;;;209.43;197.40;;;30.70;99.90;;;;;;5051434;28;20486;-88
2022/08/05 12:01:08;;;;;;;295.20;277.00;;;30.20;99.90;;;;;;5052135;28;20049;-87
2022/08/05 12:03:46;;;;;;;1999.90;999.90;;;29.60;99.90;;;;;;5051438;28;20083;-87
2022/08/05 12:06:13;;;;;;;;;;;29.10;99.90;;;;;;5052241;28;20509;-88
2022/08/05 12:08:40;;;;;;;750.03;484.88;;;28.70;99.90;;;;;;5050232;28;19928;-88
2022/08/05 12:11:08;;;;;;;1999.90;999.90;;;28.40;99.90;;;;;;5050996;28;20110;-88
2022/08/05 12:13:34;;;;;;;1999.90;999.90;;;28.70;99.90;;;;;;5052040;28;20041;-87
2022/08/05 12:15:59;;;;;;;1999.90;999.90;;;29.30;99.90;;;;;;5050796;28;20135;-87
2022/08/05 12:18:33;;;;;;;1999.90;999.90;;;29.90;99.90;;;;;;5053805;28;20041;-88